sensor_id;sensor_type;location;lat;lon;timestamp;pressure;altitude;pressure_sealevel;temperature;humidity
46023;BME280;31756;47.936;16.224;2023-02-14T00:01:32;100620.03;;;2.17;100.00
46023;BME280;31756;47.936;16.224;2023-02-14T00:03:57;100619.34;;;2.19;100.00
46023;BME280;31756;47.936;16.224;2023-02-14T00:06:25;100615.41;;;2.08;100.00
46023;BME280;31756;47.936;16.224;2023-02-14T00:08:50;100619.88;;;1.95;100.00
46023;BME280;31756;47.936;16.224;2023-02-14T00:11:18;100614.38;;;1.86;100.00
46023;BME280;31756;47.936;16.224;2023-02-14T00:13:43;100611.19;;;1.72;100.00
46023;BME280;31756;47.936;16.224;2023-02-14T00:16:29;100612.19;;;1.93;100.00
46023;BME280;31756;47.936;16.224;2023-02-14T00:18:55;100597.13;;;2.14;100.00
46023;BME280;31756;47.936;16.224;2023-02-14T00:21:38;100600.88;;;2.22;100.00
46023;BME280;31756;47.936;16.224;2023-02-14T00:24:05;100599.84;;;2.36;100.00
46023;BME280;31756;47.936;16.224;2023-02-14T00:26:31;100597.66;;;2.44;100.00
46023;BME280;31756;47.936;16.224;2023-02-14T00:28:56;100593.59;;;2.47;100.00
46023;BME280;31756;47.936;16.224;2023-02-14T00:31:22;100600.56;;;2.34;100.00
46023;BME280;31756;47.936;16.224;2023-02-14T00:33:47;100600.31;;;2.10;100.00
46023;BME280;31756;47.936;16.224;2023-02-14T00:36:13;100600.56;;;1.97;100.00
46023;BME280;31756;47.936;16.224;2023-02-14T00:38:38;100612.28;;;1.77;100.00
46023;BME280;31756;47.936;16.224;2023-02-14T00:41:06;100613.47;;;1.67;100.00
46023;BME280;31756;47.936;16.224;2023-02-14T00:43:31;100619.28;;;1.49;100.00
46023;BME280;31756;47.936;16.224;2023-02-14T00:45:57;100615.78;;;1.29;100.00
46023;BME280;31756;47.936;16.224;2023-02-14T00:48:22;100620.97;;;1.14;100.00
46023;BME280;31756;47.936;16.224;2023-02-14T00:50:48;100614.50;;;1.03;100.00
46023;BME280;31756;47.936;16.224;2023-02-14T00:53:13;100613.34;;;0.97;100.00
46023;BME280;31756;47.936;16.224;2023-02-14T00:55:39;100614.13;;;0.96;100.00
46023;BME280;31756;47.936;16.224;2023-02-14T00:58:04;100621.25;;;1.20;100.00
46023;BME280;31756;47.936;16.224;2023-02-14T01:00:30;100611.88;;;1.18;100.00
46023;BME280;31756;47.936;16.224;2023-02-14T01:02:55;100621.03;;;1.16;100.00
46023;BME280;31756;47.936;16.224;2023-02-14T01:05:20;100616.25;;;1.04;100.00
46023;BME280;31756;47.936;16.224;2023-02-14T01:07:46;100612.44;;;1.12;100.00
46023;BME280;31756;47.936;16.224;2023-02-14T01:10:11;100612.34;;;1.27;100.00
46023;BME280;31756;47.936;16.224;2023-02-14T01:12:37;100608.25;;;1.47;100.00
46023;BME280;31756;47.936;16.224;2023-02-14T01:15:02;100609.38;;;1.69;100.00
46023;BME280;31756;47.936;16.224;2023-02-14T01:17:28;100599.84;;;1.81;100.00
46023;BME280;31756;47.936;16.224;2023-02-14T01:19:53;100607.06;;;1.92;100.00
46023;BME280;31756;47.936;16.224;2023-02-14T01:22:19;100593.97;;;2.00;100.00
46023;BME280;31756;47.936;16.224;2023-02-14T01:24:44;100597.13;;;2.14;100.00
46023;BME280;31756;47.936;16.224;2023-02-14T01:27:10;100590.50;;;2.16;100.00
46023;BME280;31756;47.936;16.224;2023-02-14T01:29:35;100581.44;;;2.21;100.00
46023;BME280;31756;47.936;16.224;2023-02-14T01:32:00;100590.00;;;2.42;100.00
46023;BME280;31756;47.936;16.224;2023-02-14T01:34:26;100582.56;;;2.45;100.00
46023;BME280;31756;47.936;16.224;2023-02-14T01:36:51;100576.66;;;2.46;100.00
46023;BME280;31756;47.936;16.224;2023-02-14T01:39:17;100585.56;;;2.56;100.00
46023;BME280;31756;47.936;16.224;2023-02-14T01:41:44;100576.28;;;2.56;100.00
46023;BME280;31756;47.936;16.224;2023-02-14T01:46:41;100579.16;;;2.64;100.00
46023;BME280;31756;47.936;16.224;2023-02-14T01:51:32;100576.16;;;2.72;100.00
46023;BME280;31756;47.936;16.224;2023-02-14T01:54:00;100573.09;;;2.80;100.00
46023;BME280;31756;47.936;16.224;2023-02-14T01:56:27;100562.97;;;2.80;100.00
46023;BME280;31756;47.936;16.224;2023-02-14T01:58:56;100559.09;;;2.88;100.00
46023;BME280;31756;47.936;16.224;2023-02-14T02:01:24;100561.63;;;2.88;100.00
46023;BME280;31756;47.936;16.224;2023-02-14T02:03:55;100563.72;;;2.98;100.00
46023;BME280;31756;47.936;16.224;2023-02-14T02:06:29;100563.72;;;2.98;100.00
46023;BME280;31756;47.936;16.224;2023-02-14T02:11:42;100543.06;;;3.08;100.00
46023;BME280;31756;47.936;16.224;2023-02-14T02:14:12;100545.03;;;3.15;100.00
46023;BME280;31756;47.936;16.224;2023-02-14T02:27:33;100535.47;;;3.29;100.00
46023;BME280;31756;47.936;16.224;2023-02-14T02:40:32;100523.56;;;3.48;100.00
46023;BME280;31756;47.936;16.224;2023-02-14T02:45:42;100521.00;;;3.47;100.00
46023;BME280;31756;47.936;16.224;2023-02-14T02:48:35;100524.59;;;3.52;100.00
46023;BME280;31756;47.936;16.224;2023-02-14T02:51:06;100519.56;;;3.53;100.00
46023;BME280;31756;47.936;16.224;2023-02-14T02:54:02;100516.69;;;3.66;100.00
46023;BME280;31756;47.936;16.224;2023-02-14T02:56:33;100512.78;;;3.75;100.00
46023;BME280;31756;47.936;16.224;2023-02-14T03:02:00;100509.44;;;3.76;100.00
46023;BME280;31756;47.936;16.224;2023-02-14T03:04:28;100507.59;;;3.72;100.00
46023;BME280;31756;47.936;16.224;2023-02-14T03:07:12;100512.78;;;3.75;100.00
46023;BME280;31756;47.936;16.224;2023-02-14T03:09:57;100514.53;;;3.76;100.00
46023;BME280;31756;47.936;16.224;2023-02-14T03:15:10;100508.81;;;3.81;100.00
46023;BME280;31756;47.936;16.224;2023-02-14T03:20:13;100506.44;;;3.63;100.00
46023;BME280;31756;47.936;16.224;2023-02-14T03:28:30;100499.97;;;3.49;100.00
46023;BME280;31756;47.936;16.224;2023-02-14T03:35:46;100495.75;;;3.50;100.00
46023;BME280;31756;47.936;16.224;2023-02-14T03:41:01;100498.72;;;3.60;100.00
46023;BME280;31756;47.936;16.224;2023-02-14T03:48:23;100488.97;;;2.87;100.00
46023;BME280;31756;47.936;16.224;2023-02-14T03:50:51;100492.06;;;2.80;100.00
46023;BME280;31756;47.936;16.224;2023-02-14T03:53:18;100486.81;;;2.75;100.00
46023;BME280;31756;47.936;16.224;2023-02-14T03:55:57;100483.41;;;2.74;100.00
46023;BME280;31756;47.936;16.224;2023-02-14T03:58:27;100477.72;;;2.80;100.00
46023;BME280;31756;47.936;16.224;2023-02-14T04:00:56;100471.81;;;2.80;100.00
46023;BME280;31756;47.936;16.224;2023-02-14T04:03:23;100473.50;;;2.81;100.00
46023;BME280;31756;47.936;16.224;2023-02-14T04:05:49;100467.84;;;2.86;100.00
46023;BME280;31756;47.936;16.224;2023-02-14T04:08:23;100473.97;;;2.91;100.00
46023;BME280;31756;47.936;16.224;2023-02-14T04:10:49;100469.28;;;2.80;100.00
46023;BME280;31756;47.936;16.224;2023-02-14T04:13:18;100470.06;;;2.79;100.00
46023;BME280;31756;47.936;16.224;2023-02-14T04:15:44;100459.94;;;2.79;100.00
46023;BME280;31756;47.936;16.224;2023-02-14T04:18:09;100454.69;;;2.74;100.00
46023;BME280;31756;47.936;16.224;2023-02-14T04:20:53;100460.78;;;2.39;100.00
46023;BME280;31756;47.936;16.224;2023-02-14T04:23:18;100459.69;;;2.33;100.00
46023;BME280;31756;47.936;16.224;2023-02-14T04:25:44;100460.28;;;2.08;100.00
46023;BME280;31756;47.936;16.224;2023-02-14T04:28:10;100458.13;;;1.98;100.00
46023;BME280;31756;47.936;16.224;2023-02-14T04:30:36;100462.91;;;1.92;100.00
46023;BME280;31756;47.936;16.224;2023-02-14T04:33:02;100454.94;;;2.02;100.00
46023;BME280;31756;47.936;16.224;2023-02-14T04:35:27;100450.88;;;2.05;100.00
46023;BME280;31756;47.936;16.224;2023-02-14T04:37:53;100443.75;;;1.97;100.00
46023;BME280;31756;47.936;16.224;2023-02-14T04:40:18;100448.56;;;1.91;100.00
46023;BME280;31756;47.936;16.224;2023-02-14T04:42:44;100450.91;;;1.68;100.00
46023;BME280;31756;47.936;16.224;2023-02-14T04:45:10;100454.09;;;1.47;100.00
46023;BME280;31756;47.936;16.224;2023-02-14T04:47:35;100446.44;;;1.27;100.00
46023;BME280;31756;47.936;16.224;2023-02-14T04:50:01;100452.25;;;1.25;100.00
46023;BME280;31756;47.936;16.224;2023-02-14T04:52:27;100449.75;;;0.91;100.00
46023;BME280;31756;47.936;16.224;2023-02-14T04:54:52;100444.81;;;0.93;100.00
46023;BME280;31756;47.936;16.224;2023-02-14T04:57:18;100446.03;;;1.01;100.00
46023;BME280;31756;47.936;16.224;2023-02-14T04:59:43;100451.41;;;0.90;100.00
46023;BME280;31756;47.936;16.224;2023-02-14T05:02:09;100448.31;;;0.78;100.00
46023;BME280;31756;47.936;16.224;2023-02-14T05:04:34;100443.69;;;0.70;100.00
46023;BME280;31756;47.936;16.224;2023-02-14T05:07:00;100455.69;;;0.58;100.00
46023;BME280;31756;47.936;16.224;2023-02-14T05:09:25;100457.66;;;0.47;100.00
46023;BME280;31756;47.936;16.224;2023-02-14T05:11:51;100459.16;;;0.43;100.00
46023;BME280;31756;47.936;16.224;2023-02-14T05:14:17;100450.91;;;0.30;100.00
46023;BME280;31756;47.936;16.224;2023-02-14T05:16:42;100465.00;;;0.42;100.00
46023;BME280;31756;47.936;16.224;2023-02-14T05:19:08;100463.06;;;0.37;100.00
46023;BME280;31756;47.936;16.224;2023-02-14T05:21:33;100457.91;;;0.35;100.00
46023;BME280;31756;47.936;16.224;2023-02-14T05:23:59;100466.75;;;0.27;100.00
46023;BME280;31756;47.936;16.224;2023-02-14T05:26:25;100466.28;;;0.18;100.00
46023;BME280;31756;47.936;16.224;2023-02-14T05:28:50;100463.22;;;0.08;100.00
46023;BME280;31756;47.936;16.224;2023-02-14T05:31:16;100455.41;;;0.03;100.00
46023;BME280;31756;47.936;16.224;2023-02-14T05:33:41;100454.53;;;0.03;100.00
46023;BME280;31756;47.936;16.224;2023-02-14T05:36:07;100456.09;;;0.00;100.00
46023;BME280;31756;47.936;16.224;2023-02-14T05:38:32;100458.47;;;0.14;100.00
46023;BME280;31756;47.936;16.224;2023-02-14T05:40:59;100452.41;;;0.10;100.00
46023;BME280;31756;47.936;16.224;2023-02-14T05:43:24;100467.63;;;0.12;100.00
46023;BME280;31756;47.936;16.224;2023-02-14T05:45:50;100461.00;;;0.14;100.00
46023;BME280;31756;47.936;16.224;2023-02-14T05:48:15;100460.69;;;0.08;100.00
46023;BME280;31756;47.936;16.224;2023-02-14T05:50:41;100463.13;;;0.06;100.00
46023;BME280;31756;47.936;16.224;2023-02-14T05:53:08;100460.38;;;0.02;100.00
46023;BME280;31756;47.936;16.224;2023-02-14T05:55:33;100457.53;;;-0.05;100.00
46023;BME280;31756;47.936;16.224;2023-02-14T05:57:59;100459.88;;;-0.08;100.00
46023;BME280;31756;47.936;16.224;2023-02-14T06:00:24;100457.38;;;-0.08;100.00
46023;BME280;31756;47.936;16.224;2023-02-14T06:02:50;100463.75;;;-0.14;100.00
46023;BME280;31756;47.936;16.224;2023-02-14T06:05:15;100466.19;;;-0.16;100.00
46023;BME280;31756;47.936;16.224;2023-02-14T06:07:42;100465.16;;;-0.19;100.00
46023;BME280;31756;47.936;16.224;2023-02-14T06:10:13;100470.34;;;-0.16;100.00
46023;BME280;31756;47.936;16.224;2023-02-14T06:12:38;100473.88;;;-0.13;100.00
46023;BME280;31756;47.936;16.224;2023-02-14T06:15:04;100477.03;;;-0.17;100.00
46023;BME280;31756;47.936;16.224;2023-02-14T06:17:29;100472.81;;;-0.18;100.00
46023;BME280;31756;47.936;16.224;2023-02-14T06:19:55;100475.22;;;-0.19;100.00
46023;BME280;31756;47.936;16.224;2023-02-14T06:22:20;100475.56;;;-0.13;100.00
46023;BME280;31756;47.936;16.224;2023-02-14T06:24:46;100470.59;;;-0.12;100.00
46023;BME280;31756;47.936;16.224;2023-02-14T06:27:12;100474.56;;;-0.01;100.00
46023;BME280;31756;47.936;16.224;2023-02-14T06:29:37;100474.09;;;0.07;100.00
46023;BME280;31756;47.936;16.224;2023-02-14T06:32:02;100480.72;;;0.21;100.00
46023;BME280;31756;47.936;16.224;2023-02-14T06:34:31;100474.00;;;0.21;100.00
46023;BME280;31756;47.936;16.224;2023-02-14T06:36:57;100477.72;;;0.28;100.00
46023;BME280;31756;47.936;16.224;2023-02-14T06:39:23;100483.09;;;0.34;100.00
46023;BME280;31756;47.936;16.224;2023-02-14T06:41:48;100491.09;;;0.43;100.00
46023;BME280;31756;47.936;16.224;2023-02-14T06:44:13;100487.16;;;0.48;100.00
46023;BME280;31756;47.936;16.224;2023-02-14T06:46:39;100495.91;;;0.55;100.00
46023;BME280;31756;47.936;16.224;2023-02-14T06:49:04;100488.72;;;0.62;100.00
46023;BME280;31756;47.936;16.224;2023-02-14T06:51:30;100491.31;;;0.64;100.00
46023;BME280;31756;47.936;16.224;2023-02-14T06:53:55;100494.38;;;0.74;100.00
46023;BME280;31756;47.936;16.224;2023-02-14T06:56:20;100483.09;;;0.84;100.00
46023;BME280;31756;47.936;16.224;2023-02-14T06:58:46;100486.78;;;0.90;100.00
46023;BME280;31756;47.936;16.224;2023-02-14T07:01:11;100480.59;;;1.02;100.00
46023;BME280;31756;47.936;16.224;2023-02-14T07:03:37;100483.63;;;1.12;100.00
46023;BME280;31756;47.936;16.224;2023-02-14T07:06:02;100471.53;;;1.23;100.00
46023;BME280;31756;47.936;16.224;2023-02-14T07:08:28;100477.84;;;1.32;100.00
46023;BME280;31756;47.936;16.224;2023-02-14T07:10:56;100490.50;;;1.50;100.00
46023;BME280;31756;47.936;16.224;2023-02-14T07:13:22;100489.53;;;1.66;100.00
46023;BME280;31756;47.936;16.224;2023-02-14T07:15:47;100482.66;;;1.81;100.00
46023;BME280;31756;47.936;16.224;2023-02-14T07:18:13;100489.84;;;1.91;100.00
46023;BME280;31756;47.936;16.224;2023-02-14T07:20:38;100480.53;;;2.08;100.00
46023;BME280;31756;47.936;16.224;2023-02-14T07:23:03;100484.78;;;2.28;100.00
46023;BME280;31756;47.936;16.224;2023-02-14T07:25:29;100484.56;;;2.62;100.00
46023;BME280;31756;47.936;16.224;2023-02-14T07:27:54;100474.53;;;2.84;100.00
46023;BME280;31756;47.936;16.224;2023-02-14T07:30:20;100478.25;;;3.13;100.00
46023;BME280;31756;47.936;16.224;2023-02-14T07:32:45;100476.41;;;3.31;100.00
46023;BME280;31756;47.936;16.224;2023-02-14T07:35:11;100480.63;;;3.51;100.00
46023;BME280;31756;47.936;16.224;2023-02-14T07:37:37;100474.69;;;3.73;100.00
46023;BME280;31756;47.936;16.224;2023-02-14T07:40:02;100479.56;;;3.91;100.00
46023;BME280;31756;47.936;16.224;2023-02-14T07:42:28;100465.63;;;4.02;100.00
46023;BME280;31756;47.936;16.224;2023-02-14T07:44:54;100482.66;;;4.28;100.00
46023;BME280;31756;47.936;16.224;2023-02-14T07:47:19;100484.69;;;4.38;100.00
46023;BME280;31756;47.936;16.224;2023-02-14T07:49:44;100483.84;;;4.62;100.00
46023;BME280;31756;47.936;16.224;2023-02-14T07:52:10;100476.78;;;4.78;100.00
46023;BME280;31756;47.936;16.224;2023-02-14T07:54:35;100474.59;;;4.89;100.00
46023;BME280;31756;47.936;16.224;2023-02-14T07:57:03;100469.19;;;5.05;100.00
46023;BME280;31756;47.936;16.224;2023-02-14T07:59:28;100463.81;;;5.21;100.00
46023;BME280;31756;47.936;16.224;2023-02-14T08:01:54;100466.66;;;5.30;100.00
46023;BME280;31756;47.936;16.224;2023-02-14T08:04:20;100463.69;;;5.45;100.00
46023;BME280;31756;47.936;16.224;2023-02-14T08:06:45;100464.34;;;5.66;100.00
46023;BME280;31756;47.936;16.224;2023-02-14T08:09:11;100467.97;;;5.73;100.00
46023;BME280;31756;47.936;16.224;2023-02-14T08:11:52;100472.31;;;5.77;100.00
46023;BME280;31756;47.936;16.224;2023-02-14T08:14:36;100479.97;;;5.78;100.00
46023;BME280;31756;47.936;16.224;2023-02-14T08:17:02;100482.03;;;5.90;100.00
46023;BME280;31756;47.936;16.224;2023-02-14T08:19:28;100479.91;;;6.04;100.00
46023;BME280;31756;47.936;16.224;2023-02-14T08:21:53;100477.03;;;6.21;100.00
46023;BME280;31756;47.936;16.224;2023-02-14T08:24:19;100485.59;;;6.23;100.00
46023;BME280;31756;47.936;16.224;2023-02-14T08:26:44;100480.03;;;6.38;100.00
46023;BME280;31756;47.936;16.224;2023-02-14T08:29:09;100484.59;;;6.50;100.00
46023;BME280;31756;47.936;16.224;2023-02-14T08:31:35;100492.47;;;6.59;100.00
46023;BME280;31756;47.936;16.224;2023-02-14T08:34:05;100481.41;;;6.57;100.00
46023;BME280;31756;47.936;16.224;2023-02-14T08:36:30;100491.91;;;6.69;100.00
46023;BME280;31756;47.936;16.224;2023-02-14T08:38:56;100488.31;;;6.61;100.00
46023;BME280;31756;47.936;16.224;2023-02-14T08:41:21;100498.16;;;6.49;100.00
46023;BME280;31756;47.936;16.224;2023-02-14T08:43:47;100497.38;;;6.51;100.00
46023;BME280;31756;47.936;16.224;2023-02-14T08:46:12;100497.75;;;6.65;100.00
46023;BME280;31756;47.936;16.224;2023-02-14T08:48:40;100497.72;;;6.63;100.00
46023;BME280;31756;47.936;16.224;2023-02-14T08:51:06;100494.97;;;6.56;100.00
46023;BME280;31756;47.936;16.224;2023-02-14T08:53:31;100490.88;;;6.62;100.00
46023;BME280;31756;47.936;16.224;2023-02-14T08:56:00;100496.72;;;6.58;100.00
46023;BME280;31756;47.936;16.224;2023-02-14T08:58:26;100501.63;;;6.83;100.00
46023;BME280;31756;47.936;16.224;2023-02-14T09:00:51;100502.75;;;6.93;100.00
46023;BME280;31756;47.936;16.224;2023-02-14T09:03:17;100509.00;;;7.04;100.00
46023;BME280;31756;47.936;16.224;2023-02-14T09:05:42;100499.91;;;7.15;100.00
46023;BME280;31756;47.936;16.224;2023-02-14T09:08:08;100509.94;;;7.09;100.00
46023;BME280;31756;47.936;16.224;2023-02-14T09:10:33;100507.09;;;7.31;100.00
46023;BME280;31756;47.936;16.224;2023-02-14T09:12:59;100508.78;;;7.31;100.00
46023;BME280;31756;47.936;16.224;2023-02-14T09:15:24;100512.38;;;7.03;100.00
46023;BME280;31756;47.936;16.224;2023-02-14T09:17:50;100512.44;;;7.06;100.00
46023;BME280;31756;47.936;16.224;2023-02-14T09:20:16;100503.84;;;6.70;100.00
46023;BME280;31756;47.936;16.224;2023-02-14T09:22:41;100508.59;;;6.89;100.00
46023;BME280;31756;47.936;16.224;2023-02-14T09:25:07;100501.25;;;7.01;100.00
46023;BME280;31756;47.936;16.224;2023-02-14T09:27:33;100506.03;;;6.89;100.00
46023;BME280;31756;47.936;16.224;2023-02-14T09:29:59;100504.22;;;6.85;100.00
46023;BME280;31756;47.936;16.224;2023-02-14T09:32:24;100504.53;;;6.64;100.00
46023;BME280;31756;47.936;16.224;2023-02-14T09:34:51;100512.75;;;6.85;100.00
46023;BME280;31756;47.936;16.224;2023-02-14T09:37:16;100514.09;;;7.04;100.00
46023;BME280;31756;47.936;16.224;2023-02-14T09:39:42;100507.16;;;6.99;100.00
46023;BME280;31756;47.936;16.224;2023-02-14T09:44:39;100511.84;;;7.16;100.00
46023;BME280;31756;47.936;16.224;2023-02-14T09:47:32;100520.31;;;6.82;100.00
46023;BME280;31756;47.936;16.224;2023-02-14T09:49:52;100517.97;;;6.90;100.00
46023;BME280;31756;47.936;16.224;2023-02-14T09:52:19;100523.00;;;6.87;100.00
46023;BME280;31756;47.936;16.224;2023-02-14T09:54:46;100514.19;;;7.09;100.00
46023;BME280;31756;47.936;16.224;2023-02-14T09:57:31;100517.72;;;7.14;100.00
46023;BME280;31756;47.936;16.224;2023-02-14T10:05:06;100518.41;;;6.75;100.00
46023;BME280;31756;47.936;16.224;2023-02-14T10:12:49;100523.00;;;6.87;100.00
46023;BME280;31756;47.936;16.224;2023-02-14T10:15:24;100509.72;;;7.00;100.00
46023;BME280;31756;47.936;16.224;2023-02-14T10:17:54;100517.06;;;6.57;100.00
46023;BME280;31756;47.936;16.224;2023-02-14T10:20:33;100524.09;;;6.65;100.00
46023;BME280;31756;47.936;16.224;2023-02-14T10:25:31;100528.63;;;6.44;100.00
46023;BME280;31756;47.936;16.224;2023-02-14T10:28:00;100527.22;;;6.55;100.00
46023;BME280;31756;47.936;16.224;2023-02-14T10:30:26;100520.63;;;6.63;100.00
46023;BME280;31756;47.936;16.224;2023-02-14T10:32:59;100531.44;;;6.23;100.00
46023;BME280;31756;47.936;16.224;2023-02-14T10:35:31;100514.72;;;6.05;100.00
46023;BME280;31756;47.936;16.224;2023-02-14T10:40:58;100515.53;;;6.02;100.00
46023;BME280;31756;47.936;16.224;2023-02-14T10:46:12;100518.69;;;5.95;100.00
46023;BME280;31756;47.936;16.224;2023-02-14T10:48:53;100512.13;;;6.03;100.00
46023;BME280;31756;47.936;16.224;2023-02-14T10:56:44;100506.81;;;5.95;100.00
46023;BME280;31756;47.936;16.224;2023-02-14T10:59:18;100506.09;;;6.00;100.00
46023;BME280;31756;47.936;16.224;2023-02-14T11:01:46;100508.38;;;6.19;100.00
46023;BME280;31756;47.936;16.224;2023-02-14T11:04:12;100504.31;;;6.25;100.00
46023;BME280;31756;47.936;16.224;2023-02-14T11:06:40;100495.50;;;6.14;100.00
46023;BME280;31756;47.936;16.224;2023-02-14T11:09:08;100500.16;;;6.29;100.00
46023;BME280;31756;47.936;16.224;2023-02-14T11:11:37;100490.44;;;6.46;100.00
46023;BME280;31756;47.936;16.224;2023-02-14T11:14:22;100492.72;;;6.68;100.00
46023;BME280;31756;47.936;16.224;2023-02-14T11:16:48;100480.28;;;6.78;100.00
46023;BME280;31756;47.936;16.224;2023-02-14T11:19:20;100480.34;;;6.81;100.00
46023;BME280;31756;47.936;16.224;2023-02-14T11:21:46;100468.19;;;6.71;100.00
46023;BME280;31756;47.936;16.224;2023-02-14T11:24:24;100463.03;;;7.03;100.00
46023;BME280;31756;47.936;16.224;2023-02-14T11:26:49;100462.66;;;7.22;100.00
46023;BME280;31756;47.936;16.224;2023-02-14T11:29:24;100463.34;;;7.15;100.00
46023;BME280;31756;47.936;16.224;2023-02-14T11:31:50;100466.91;;;6.87;100.00
46023;BME280;31756;47.936;16.224;2023-02-14T11:36:44;100459.69;;;7.05;100.00
46023;BME280;31756;47.936;16.224;2023-02-14T11:39:20;100451.63;;;6.88;100.00
46023;BME280;31756;47.936;16.224;2023-02-14T11:41:50;100464.88;;;6.74;100.00
46023;BME280;31756;47.936;16.224;2023-02-14T11:44:18;100452.88;;;6.70;100.00
46023;BME280;31756;47.936;16.224;2023-02-14T11:46:47;100451.75;;;6.93;100.00
46023;BME280;31756;47.936;16.224;2023-02-14T11:49:24;100449.81;;;6.83;100.00
46023;BME280;31756;47.936;16.224;2023-02-14T11:51:52;100454.88;;;6.81;100.00
46023;BME280;31756;47.936;16.224;2023-02-14T11:59:23;100442.88;;;6.77;100.00
46023;BME280;31756;47.936;16.224;2023-02-14T12:01:50;100439.28;;;6.71;100.00
46023;BME280;31756;47.936;16.224;2023-02-14T12:04:21;100445.88;;;6.63;100.00
46023;BME280;31756;47.936;16.224;2023-02-14T12:06:49;100445.94;;;6.64;100.00
46023;BME280;31756;47.936;16.224;2023-02-14T12:11:53;100436.22;;;6.84;100.00
46023;BME280;31756;47.936;16.224;2023-02-14T12:14:20;100439.69;;;6.86;100.00
46023;BME280;31756;47.936;16.224;2023-02-14T12:17:10;100435.41;;;6.85;100.00
46023;BME280;31756;47.936;16.224;2023-02-14T12:19:33;100425.47;;;6.96;100.00
46023;BME280;31756;47.936;16.224;2023-02-14T12:22:03;100423.69;;;6.93;100.00
46023;BME280;31756;47.936;16.224;2023-02-14T12:24:31;100419.75;;;6.70;100.00
46023;BME280;31756;47.936;16.224;2023-02-14T12:29:40;100416.63;;;6.81;100.00
46023;BME280;31756;47.936;16.224;2023-02-14T12:32:19;100424.28;;;6.81;100.00
46023;BME280;31756;47.936;16.224;2023-02-14T12:34:46;100411.13;;;6.65;100.00
46023;BME280;31756;47.936;16.224;2023-02-14T12:40:17;100408.88;;;6.44;100.00
46023;BME280;31756;47.936;16.224;2023-02-14T12:42:52;100408.00;;;6.76;100.00
46023;BME280;31756;47.936;16.224;2023-02-14T12:45:25;100400.84;;;6.62;100.00
46023;BME280;31756;47.936;16.224;2023-02-14T12:50:33;100405.34;;;6.39;100.00
46023;BME280;31756;47.936;16.224;2023-02-14T12:58:01;100407.56;;;6.27;100.00
46023;BME280;31756;47.936;16.224;2023-02-14T13:01:20;100400.81;;;6.27;100.00
46023;BME280;31756;47.936;16.224;2023-02-14T13:05:58;100407.56;;;6.27;100.00
46023;BME280;31756;47.936;16.224;2023-02-14T13:11:00;100400.19;;;6.37;100.00
46023;BME280;31756;47.936;16.224;2023-02-14T13:16:33;100418.78;;;6.33;100.00
46023;BME280;31756;47.936;16.224;2023-02-14T13:21:28;100412.53;;;6.22;100.00
46023;BME280;31756;47.936;16.224;2023-02-14T13:23:57;100413.41;;;6.23;100.00
46023;BME280;31756;47.936;16.224;2023-02-14T13:26:29;100409.19;;;6.23;100.00
46023;BME280;31756;47.936;16.224;2023-02-14T13:29:03;100412.00;;;6.34;100.00
46023;BME280;31756;47.936;16.224;2023-02-14T13:31:30;100402.47;;;6.27;100.00
46023;BME280;31756;47.936;16.224;2023-02-14T13:33:57;100393.97;;;6.26;100.00
46023;BME280;31756;47.936;16.224;2023-02-14T13:36:25;100403.97;;;6.20;100.00
46023;BME280;31756;47.936;16.224;2023-02-14T13:38:51;100396.22;;;6.16;100.00
46023;BME280;31756;47.936;16.224;2023-02-14T13:41:18;100401.41;;;6.19;100.00
46023;BME280;31756;47.936;16.224;2023-02-14T13:43:57;100399.00;;;6.23;100.00
46023;BME280;31756;47.936;16.224;2023-02-14T13:56:54;100389.69;;;6.25;100.00
46023;BME280;31756;47.936;16.224;2023-02-14T13:59:27;100390.78;;;6.02;100.00
46023;BME280;31756;47.936;16.224;2023-02-14T14:01:54;100390.50;;;6.23;100.00
46023;BME280;31756;47.936;16.224;2023-02-14T14:17:31;100388.34;;;6.72;100.00
46023;BME280;31756;47.936;16.224;2023-02-14T14:19:57;100381.50;;;6.70;100.00
46023;BME280;31756;47.936;16.224;2023-02-14T14:22:24;100382.22;;;6.64;100.00
46023;BME280;31756;47.936;16.224;2023-02-14T14:24:51;100387.34;;;6.33;100.00
46023;BME280;31756;47.936;16.224;2023-02-14T14:29:50;100384.91;;;6.36;100.00
46023;BME280;31756;47.936;16.224;2023-02-14T14:34:53;100383.53;;;6.50;100.00
46023;BME280;31756;47.936;16.224;2023-02-14T14:37:20;100379.38;;;6.54;100.00
46023;BME280;31756;47.936;16.224;2023-02-14T14:39:49;100375.94;;;6.52;100.00
46023;BME280;31756;47.936;16.224;2023-02-14T14:42:15;100380.13;;;6.50;100.00
46023;BME280;31756;47.936;16.224;2023-02-14T14:44:45;100368.34;;;6.53;100.00
46023;BME280;31756;47.936;16.224;2023-02-14T14:47:13;100379.00;;;6.38;100.00
46023;BME280;31756;47.936;16.224;2023-02-14T14:49:41;100365.53;;;6.42;100.00
46023;BME280;31756;47.936;16.224;2023-02-14T14:52:06;100368.03;;;6.41;100.00
46023;BME280;31756;47.936;16.224;2023-02-14T14:54:40;100365.69;;;6.49;100.00
46023;BME280;31756;47.936;16.224;2023-02-14T14:57:06;100372.34;;;6.43;100.00
46023;BME280;31756;47.936;16.224;2023-02-14T14:59:35;100373.84;;;6.35;100.00
46023;BME280;31756;47.936;16.224;2023-02-14T15:02:02;100370.13;;;6.23;100.00
46023;BME280;31756;47.936;16.224;2023-02-14T15:06:57;100374.16;;;5.85;100.00
46023;BME280;31756;47.936;16.224;2023-02-14T15:09:28;100371.28;;;5.74;100.00
46023;BME280;31756;47.936;16.224;2023-02-14T15:11:54;100365.78;;;5.61;100.00
46023;BME280;31756;47.936;16.224;2023-02-14T15:14:41;100370.66;;;5.51;100.00